createdAt,value
2023-06-26T00:00:49.578Z,17.46
2023-06-26T00:03:16.634Z,17.45
2023-06-26T00:05:43.803Z,17.43
2023-06-26T00:08:10.715Z,17.41
2023-06-26T00:10:37.878Z,17.42
2023-06-26T00:13:04.875Z,17.42
2023-06-26T00:15:32.893Z,17.43
2023-06-26T00:18:00.220Z,17.43
2023-06-26T00:20:27.039Z,17.44
2023-06-26T00:22:54.904Z,17.44
2023-06-26T00:25:21.786Z,17.43
2023-06-26T00:27:48.723Z,17.45
2023-06-26T00:30:15.546Z,17.46
2023-06-26T00:32:42.396Z,17.47
2023-06-26T00:35:09.287Z,17.47
2023-06-26T00:37:37.248Z,17.47
2023-06-26T00:40:06.762Z,17.45
2023-06-26T00:42:34.104Z,17.42
2023-06-26T00:45:01.043Z,17.40
2023-06-26T00:47:28.533Z,17.39
2023-06-26T00:49:55.918Z,17.38
2023-06-26T00:52:25.004Z,17.37
2023-06-26T00:54:54.832Z,17.34
2023-06-26T00:57:21.736Z,17.32
2023-06-26T00:59:49.336Z,17.29
2023-06-26T01:02:19.009Z,17.25
2023-06-26T01:04:48.275Z,17.22
2023-06-26T01:07:16.702Z,17.17
2023-06-26T01:09:43.958Z,17.14
2023-06-26T01:12:10.761Z,17.12
2023-06-26T01:14:38.014Z,17.09
2023-06-26T01:17:05.170Z,17.07
2023-06-26T01:19:34.579Z,17.05
2023-06-26T01:22:16.532Z,17.04
2023-06-26T01:24:52.854Z,17.03
2023-06-26T01:27:23.251Z,16.98
2023-06-26T01:29:51.265Z,17.03
2023-06-26T01:32:18.829Z,17.04
2023-06-26T01:34:46.067Z,17.06
2023-06-26T01:37:12.907Z,17.08
2023-06-26T01:39:40.066Z,17.11
2023-06-26T01:42:07.023Z,17.13
2023-06-26T01:44:36.592Z,17.15
2023-06-26T01:47:06.937Z,17.18
2023-06-26T01:49:33.767Z,17.19
2023-06-26T01:52:27.157Z,17.21
2023-06-26T01:54:57.153Z,17.22
2023-06-26T01:57:24.552Z,17.24
2023-06-26T01:59:52.465Z,17.27
2023-06-26T02:02:19.723Z,17.31
2023-06-26T02:04:49.483Z,17.34
2023-06-26T02:07:16.549Z,17.40
2023-06-26T02:09:43.671Z,17.45
2023-06-26T02:12:11.538Z,17.49
2023-06-26T02:14:38.617Z,17.54
2023-06-26T02:17:05.992Z,17.59
2023-06-26T02:19:33.009Z,17.64
2023-06-26T02:21:59.933Z,17.69
2023-06-26T02:24:31.138Z,17.74
2023-06-26T02:27:01.778Z,17.81
2023-06-26T02:29:29.443Z,17.88
2023-06-26T02:31:56.382Z,17.92
2023-06-26T02:34:23.460Z,17.97
2023-06-26T02:36:50.546Z,18.03
2023-06-26T02:39:17.602Z,18.07
2023-06-26T02:41:45.444Z,18.11
2023-06-26T02:44:13.554Z,18.15
2023-06-26T02:46:40.530Z,18.17
2023-06-26T02:49:08.227Z,18.18
2023-06-26T02:51:35.511Z,18.18
2023-06-26T02:54:08.760Z,18.20
2023-06-26T02:56:40.126Z,18.24
2023-06-26T02:59:12.120Z,18.30
2023-06-26T03:01:39.158Z,18.35
2023-06-26T03:04:06.540Z,18.38
2023-06-26T03:06:34.275Z,18.40
2023-06-26T03:09:01.237Z,18.43
2023-06-26T03:11:28.268Z,18.46
2023-06-26T03:13:55.843Z,18.47
2023-06-26T03:16:23.147Z,18.48
2023-06-26T03:18:50.028Z,18.49
2023-06-26T03:21:16.909Z,18.54
2023-06-26T03:23:43.937Z,18.64
2023-06-26T03:26:12.254Z,18.74
2023-06-26T03:28:40.034Z,18.85
2023-06-26T03:31:09.543Z,18.99
2023-06-26T03:33:36.510Z,19.10
2023-06-26T03:36:03.861Z,19.20
2023-06-26T03:38:30.738Z,19.30
2023-06-26T03:41:00.117Z,19.39
2023-06-26T03:43:27.112Z,19.49
2023-06-26T03:46:05.327Z,19.59
2023-06-26T03:48:32.371Z,19.67
2023-06-26T03:50:59.396Z,19.76
2023-06-26T03:53:26.287Z,19.85
2023-06-26T03:55:53.307Z,19.93
2023-06-26T03:58:23.739Z,20.03
2023-06-26T04:00:50.659Z,20.16
2023-06-26T04:03:17.764Z,20.27
2023-06-26T04:05:45.188Z,20.37
2023-06-26T04:08:11.999Z,20.48
2023-06-26T04:10:39.357Z,20.55
2023-06-26T04:13:06.303Z,20.62
2023-06-26T04:15:33.294Z,20.68
2023-06-26T04:18:00.310Z,20.76
2023-06-26T04:20:27.254Z,20.87
2023-06-26T04:22:54.264Z,20.96
2023-06-26T04:25:21.412Z,21.11
2023-06-26T04:27:48.397Z,21.28
2023-06-26T04:30:15.496Z,21.46
2023-06-26T04:32:42.397Z,21.65
2023-06-26T04:35:11.287Z,21.85
2023-06-26T04:37:38.139Z,22.04
2023-06-26T04:40:05.401Z,22.17
2023-06-26T04:42:34.198Z,22.31
2023-06-26T04:45:03.313Z,22.44
2023-06-26T04:47:30.883Z,22.53
2023-06-26T04:49:57.732Z,22.58
2023-06-26T04:52:24.553Z,22.63
2023-06-26T04:54:51.574Z,22.69
2023-06-26T04:57:19.341Z,22.74
2023-06-26T04:59:46.332Z,22.79
2023-06-26T05:02:16.094Z,22.81
2023-06-26T05:04:43.763Z,22.81
2023-06-26T05:07:10.912Z,22.82
2023-06-26T05:09:37.917Z,22.83
2023-06-26T05:12:04.966Z,22.84
2023-06-26T05:14:31.944Z,22.86
2023-06-26T05:16:58.747Z,22.87
2023-06-26T05:19:25.560Z,22.89
2023-06-26T05:21:53.204Z,22.91
2023-06-26T05:24:21.933Z,22.95
2023-06-26T05:26:49.705Z,22.98
2023-06-26T05:29:16.672Z,22.99
2023-06-26T05:31:47.390Z,23.01
2023-06-26T05:34:14.740Z,23.03
2023-06-26T05:36:42.690Z,23.00
2023-06-26T05:39:09.691Z,22.93
2023-06-26T05:41:37.111Z,22.85
2023-06-26T05:44:04.137Z,22.80
2023-06-26T05:46:31.007Z,22.79
2023-06-26T05:48:58.111Z,22.78
2023-06-26T05:51:25.064Z,22.80
2023-06-26T05:53:52.245Z,22.84
2023-06-26T05:56:19.926Z,22.90
2023-06-26T05:58:47.187Z,22.95
2023-06-26T06:01:14.041Z,22.98
2023-06-26T06:03:41.466Z,23.02
2023-06-26T06:06:08.549Z,23.05
2023-06-26T06:08:35.504Z,23.09
2023-06-26T06:11:03.136Z,23.12
2023-06-26T06:13:30.092Z,23.15
2023-06-26T06:15:58.823Z,23.17
2023-06-26T06:18:25.806Z,23.22
2023-06-26T06:20:52.660Z,23.26
2023-06-26T06:23:19.587Z,23.29
2023-06-26T06:25:46.544Z,23.35
2023-06-26T06:28:13.487Z,23.38
2023-06-26T06:30:45.579Z,23.40
2023-06-26T06:33:12.777Z,23.41
2023-06-26T06:35:40.017Z,23.43
2023-06-26T06:38:07.146Z,23.45
2023-06-26T06:40:33.991Z,23.48
2023-06-26T06:43:00.862Z,23.52
2023-06-26T06:45:27.784Z,23.53
2023-06-26T06:47:54.625Z,23.56
2023-06-26T06:50:21.784Z,23.64
2023-06-26T06:52:48.633Z,23.69
2023-06-26T06:55:15.542Z,23.77
2023-06-26T06:57:42.438Z,23.84
2023-06-26T07:00:10.278Z,23.88
2023-06-26T07:02:37.815Z,23.92
2023-06-26T07:05:05.137Z,23.93
2023-06-26T07:07:33.283Z,23.97
2023-06-26T07:10:01.335Z,24.04
2023-06-26T07:12:28.220Z,24.07
2023-06-26T07:14:55.429Z,24.10
2023-06-26T07:17:22.486Z,24.10
2023-06-26T07:19:50.315Z,24.06
2023-06-26T07:22:17.537Z,24.02
2023-06-26T07:24:44.539Z,24.05
2023-06-26T07:27:11.648Z,24.10
2023-06-26T07:29:38.619Z,24.19
2023-06-26T07:32:05.786Z,24.24
2023-06-26T07:34:32.696Z,24.31
2023-06-26T07:36:59.639Z,24.33
2023-06-26T07:39:26.411Z,24.38
2023-06-26T07:41:53.738Z,24.43
2023-06-26T07:44:20.717Z,24.46
2023-06-26T07:46:47.773Z,24.51
2023-06-26T07:49:14.871Z,24.59
2023-06-26T07:51:41.755Z,24.65
2023-06-26T07:54:08.830Z,24.75
2023-06-26T07:56:56.161Z,24.82
2023-06-26T07:59:24.293Z,24.87
2023-06-26T08:01:52.008Z,24.93
2023-06-26T08:04:20.098Z,24.90
2023-06-26T08:06:48.829Z,24.78
2023-06-26T08:09:15.800Z,24.76
2023-06-26T08:11:42.707Z,24.82
2023-06-26T08:14:09.561Z,24.93
2023-06-26T08:16:36.530Z,25.03
2023-06-26T08:19:03.348Z,25.05
2023-06-26T08:21:30.417Z,24.99
2023-06-26T08:23:57.619Z,24.95
2023-06-26T08:26:24.442Z,24.91
2023-06-26T08:28:51.459Z,24.92
2023-06-26T08:31:18.637Z,24.94
2023-06-26T08:33:45.596Z,24.98
2023-06-26T08:36:12.537Z,25.01
2023-06-26T08:38:41.488Z,24.94
2023-06-26T08:41:10.246Z,24.85
2023-06-26T08:43:37.474Z,24.77
2023-06-26T08:46:04.471Z,24.70
2023-06-26T08:48:34.314Z,24.65
2023-06-26T08:51:02.852Z,24.62
2023-06-26T08:53:41.889Z,24.57
2023-06-26T08:56:09.472Z,24.56
2023-06-26T08:58:40.054Z,24.56
2023-06-26T09:01:08.913Z,24.56
2023-06-26T09:03:36.629Z,24.58
2023-06-26T09:06:03.738Z,24.57
2023-06-26T09:08:31.025Z,24.51
2023-06-26T09:10:57.978Z,24.48
2023-06-26T09:13:29.789Z,24.45
2023-06-26T09:15:57.708Z,24.43
2023-06-26T09:18:24.755Z,24.40
2023-06-26T09:20:52.007Z,24.33
2023-06-26T09:23:19.116Z,24.25
2023-06-26T09:25:48.247Z,24.14
2023-06-26T09:28:16.297Z,24.02
2023-06-26T09:30:43.370Z,23.94
2023-06-26T09:33:17.102Z,23.91
2023-06-26T09:35:47.568Z,23.89
2023-06-26T09:38:16.013Z,23.87
2023-06-26T09:40:43.269Z,23.88
2023-06-26T09:43:11.292Z,23.94
2023-06-26T09:45:38.171Z,24.00
2023-06-26T09:48:05.367Z,24.07
2023-06-26T09:50:35.654Z,24.16
2023-06-26T09:53:08.693Z,24.21
2023-06-26T09:55:36.746Z,24.21
2023-06-26T09:58:04.965Z,24.19
2023-06-26T10:00:34.651Z,24.16
2023-06-26T10:03:02.279Z,24.15
2023-06-26T10:05:29.374Z,24.14
2023-06-26T10:07:56.942Z,24.12
2023-06-26T10:10:24.674Z,24.09
2023-06-26T10:12:55.721Z,24.04
2023-06-26T10:15:24.566Z,23.97
2023-06-26T10:17:53.070Z,23.90
2023-06-26T10:20:20.253Z,23.82
2023-06-26T10:22:47.834Z,23.79
2023-06-26T10:25:17.870Z,23.78
2023-06-26T10:27:46.601Z,23.83
2023-06-26T10:30:17.196Z,23.90
2023-06-26T10:32:44.281Z,24.00
2023-06-26T10:35:11.708Z,24.13
2023-06-26T10:37:49.101Z,24.25
2023-06-26T10:40:22.110Z,24.37
2023-06-26T10:42:49.104Z,24.49
2023-06-26T10:45:17.158Z,24.59
2023-06-26T10:47:48.230Z,24.75
2023-06-26T10:50:37.812Z,24.91
2023-06-26T10:53:20.079Z,25.15
2023-06-26T10:56:05.689Z,25.38
2023-06-26T10:58:42.468Z,25.56
2023-06-26T11:01:13.585Z,25.73
2023-06-26T11:03:41.591Z,25.84
2023-06-26T11:06:13.547Z,25.92
2023-06-26T11:08:53.467Z,25.99
2023-06-26T11:11:20.624Z,26.05
2023-06-26T11:13:48.260Z,26.10
2023-06-26T11:16:15.994Z,26.17
2023-06-26T11:18:43.604Z,26.29
2023-06-26T11:21:12.623Z,26.45
2023-06-26T11:23:40.474Z,26.62
2023-06-26T11:26:22.697Z,26.83
2023-06-26T11:28:50.631Z,26.99
2023-06-26T11:31:34.399Z,27.06
2023-06-26T11:34:02.712Z,27.12
2023-06-26T11:36:29.985Z,27.21
2023-06-26T11:39:01.502Z,27.26
2023-06-26T11:41:29.700Z,27.24
2023-06-26T11:43:57.454Z,27.33
2023-06-26T11:46:24.282Z,27.53
2023-06-26T11:48:51.333Z,27.74
2023-06-26T11:51:18.382Z,27.94
2023-06-26T11:53:46.844Z,28.21
2023-06-26T11:56:14.680Z,28.70
2023-06-26T11:59:02.289Z,29.32
2023-06-26T12:01:40.180Z,29.77
2023-06-26T12:04:08.951Z,29.94
2023-06-26T12:06:36.889Z,30.14
2023-06-26T12:09:06.410Z,30.70
2023-06-26T12:11:34.825Z,31.37
2023-06-26T12:14:02.259Z,31.92
2023-06-26T12:16:30.246Z,32.26
2023-06-26T12:19:15.844Z,32.32
2023-06-26T12:21:42.674Z,32.17
2023-06-26T12:24:10.511Z,32.11
2023-06-26T12:26:40.421Z,31.81
2023-06-26T12:29:08.045Z,31.68
2023-06-26T12:31:35.335Z,31.73
2023-06-26T12:34:02.782Z,31.54
2023-06-26T12:36:29.638Z,31.33
2023-06-26T12:38:56.609Z,31.71
2023-06-26T12:41:26.519Z,31.93
2023-06-26T12:43:59.601Z,31.70
2023-06-26T12:46:38.658Z,31.25
2023-06-26T12:49:12.186Z,30.67
2023-06-26T12:51:52.241Z,30.03
2023-06-26T12:54:19.208Z,29.48
2023-06-26T12:56:46.014Z,29.06
2023-06-26T12:59:12.942Z,28.66
2023-06-26T13:01:39.781Z,28.29
2023-06-26T13:04:07.296Z,27.95
2023-06-26T13:06:34.556Z,27.64
2023-06-26T13:09:01.524Z,27.36
2023-06-26T13:11:28.603Z,27.12
2023-06-26T13:14:09.516Z,26.96
2023-06-26T13:16:38.714Z,26.81
2023-06-26T13:19:05.852Z,26.77
2023-06-26T13:21:32.931Z,26.78
2023-06-26T13:24:00.450Z,27.06
2023-06-26T13:26:37.512Z,28.22
2023-06-26T13:29:05.880Z,30.00
2023-06-26T13:31:33.309Z,31.65
2023-06-26T13:34:01.859Z,32.87
2023-06-26T13:36:28.904Z,33.80
2023-06-26T13:38:58.506Z,34.67
2023-06-26T13:41:26.134Z,35.46
2023-06-26T13:43:53.782Z,36.24
2023-06-26T13:46:22.286Z,36.99
2023-06-26T13:48:49.135Z,37.39
2023-06-26T13:51:16.184Z,37.69
2023-06-26T13:53:43.186Z,38.19
2023-06-26T13:56:10.422Z,38.74
2023-06-26T13:58:37.862Z,39.16
2023-06-26T14:01:05.648Z,39.51
2023-06-26T14:03:32.805Z,39.78
2023-06-26T14:06:00.331Z,40.03
2023-06-26T14:08:27.252Z,40.36
2023-06-26T14:10:54.078Z,40.20
2023-06-26T14:13:23.784Z,39.43
2023-06-26T14:15:54.357Z,39.20
2023-06-26T14:18:22.352Z,38.90
2023-06-26T14:20:49.543Z,38.16
2023-06-26T14:23:16.600Z,37.12
2023-06-26T14:25:43.562Z,36.00
2023-06-26T14:28:10.483Z,34.86
2023-06-26T14:30:37.753Z,33.85
2023-06-26T14:33:04.874Z,32.94
2023-06-26T14:35:31.934Z,32.08
2023-06-26T14:37:58.885Z,31.35
2023-06-26T14:40:25.711Z,30.70
2023-06-26T14:42:54.279Z,30.18
2023-06-26T14:45:21.673Z,30.02
2023-06-26T14:47:49.265Z,30.88
2023-06-26T14:50:16.223Z,32.14
2023-06-26T14:52:43.148Z,33.44
2023-06-26T14:55:10.518Z,34.64
2023-06-26T14:57:37.350Z,35.66
2023-06-26T15:00:05.334Z,36.47
2023-06-26T15:02:34.044Z,37.00
2023-06-26T15:05:01.225Z,37.45
2023-06-26T15:07:29.699Z,37.98
2023-06-26T15:09:56.920Z,38.50
2023-06-26T15:12:24.813Z,38.93
2023-06-26T15:14:53.149Z,39.21
2023-06-26T15:17:20.227Z,39.46
2023-06-26T15:19:47.370Z,39.69
2023-06-26T15:22:14.360Z,40.00
2023-06-26T15:24:41.219Z,40.22
2023-06-26T15:27:08.296Z,40.35
2023-06-26T15:29:35.532Z,40.42
2023-06-26T15:32:02.637Z,40.41
2023-06-26T15:34:29.489Z,40.48
2023-06-26T15:36:56.393Z,40.40
2023-06-26T15:39:23.558Z,40.27
2023-06-26T15:41:50.633Z,40.33
2023-06-26T15:44:17.537Z,40.48
2023-06-26T15:46:44.503Z,40.62
2023-06-26T15:49:11.624Z,40.30
2023-06-26T15:51:38.960Z,39.21
2023-06-26T15:54:06.158Z,37.36
2023-06-26T15:56:33.300Z,35.56
2023-06-26T15:59:00.378Z,34.02
2023-06-26T16:01:27.896Z,32.67
2023-06-26T16:03:55.227Z,31.53
2023-06-26T16:06:22.134Z,30.58
2023-06-26T16:08:50.353Z,29.77
2023-06-26T16:11:17.400Z,29.11
2023-06-26T16:13:45.191Z,28.58
2023-06-26T16:16:15.736Z,28.08
2023-06-26T16:18:42.575Z,27.67
2023-06-26T16:21:09.565Z,27.33
2023-06-26T16:23:36.519Z,27.04
2023-06-26T16:26:03.421Z,26.75
2023-06-26T16:28:30.251Z,26.48
2023-06-26T16:30:57.233Z,26.22
2023-06-26T16:33:24.334Z,26.01
2023-06-26T16:35:51.243Z,25.79
2023-06-26T16:38:18.265Z,25.62
2023-06-26T16:40:45.074Z,25.43
2023-06-26T16:43:13.110Z,25.24
2023-06-26T16:45:39.909Z,25.04
2023-06-26T16:48:06.986Z,24.86
2023-06-26T16:50:33.944Z,24.69
2023-06-26T16:53:00.832Z,24.54
2023-06-26T16:55:27.766Z,24.40
2023-06-26T16:57:54.970Z,24.28
2023-06-26T17:00:21.751Z,24.17
2023-06-26T17:02:48.743Z,24.06
2023-06-26T17:05:16.369Z,23.96
2023-06-26T17:07:43.335Z,23.84
2023-06-26T17:10:10.482Z,23.71
2023-06-26T17:12:41.123Z,23.61
2023-06-26T17:15:08.398Z,23.52
2023-06-26T17:17:35.828Z,23.44
2023-06-26T17:20:04.683Z,23.36
2023-06-26T17:22:33.766Z,23.29
2023-06-26T17:25:05.586Z,23.24
2023-06-26T17:27:32.951Z,23.20
2023-06-26T17:30:00.437Z,23.15
2023-06-26T17:32:28.013Z,23.10
2023-06-26T17:34:54.982Z,23.06
2023-06-26T17:37:41.633Z,23.01
2023-06-26T17:40:12.361Z,22.97
2023-06-26T17:42:44.233Z,22.93
2023-06-26T17:45:11.996Z,22.88
2023-06-26T17:47:39.095Z,22.84
2023-06-26T17:50:06.478Z,22.79
2023-06-26T17:52:33.404Z,22.75
2023-06-26T17:55:00.324Z,22.68
2023-06-26T17:57:27.466Z,22.62
2023-06-26T17:59:55.425Z,22.55
2023-06-26T18:02:22.532Z,22.49
2023-06-26T18:04:49.377Z,22.43
2023-06-26T18:07:17.243Z,22.38
2023-06-26T18:09:44.294Z,22.31
2023-06-26T18:12:11.323Z,22.25
2023-06-26T18:14:38.291Z,22.19
2023-06-26T18:17:05.317Z,22.11
2023-06-26T18:19:32.112Z,22.03
2023-06-26T18:21:59.094Z,21.92
2023-06-26T18:24:26.011Z,21.85
2023-06-26T18:26:52.897Z,21.77
2023-06-26T18:29:19.709Z,21.71
2023-06-26T18:31:46.615Z,21.63
2023-06-26T18:34:13.583Z,21.57
2023-06-26T18:36:40.526Z,21.50
2023-06-26T18:39:12.488Z,21.44
2023-06-26T18:41:42.215Z,21.38
2023-06-26T18:44:09.317Z,21.31
2023-06-26T18:46:36.384Z,21.24
2023-06-26T18:49:06.725Z,21.18
2023-06-26T18:51:34.395Z,21.13
2023-06-26T18:54:02.364Z,21.09
2023-06-26T18:56:33.020Z,21.07
2023-06-26T18:59:00.021Z,21.06
2023-06-26T19:01:27.469Z,21.06
2023-06-26T19:03:54.460Z,21.06
2023-06-26T19:06:21.698Z,21.06
2023-06-26T19:08:48.562Z,21.04
2023-06-26T19:11:16.940Z,21.00
2023-06-26T19:13:44.232Z,20.98
2023-06-26T19:16:11.108Z,20.97
2023-06-26T19:18:38.135Z,20.95
2023-06-26T19:21:05.042Z,20.93
2023-06-26T19:23:32.072Z,20.92
2023-06-26T19:25:59.885Z,20.92
2023-06-26T19:28:27.175Z,20.89
2023-06-26T19:30:54.072Z,20.88
2023-06-26T19:33:21.136Z,20.83
2023-06-26T19:35:48.044Z,20.82
2023-06-26T19:38:15.156Z,20.78
2023-06-26T19:40:42.164Z,20.78
2023-06-26T19:43:09.384Z,20.78
2023-06-26T19:45:36.605Z,20.78
2023-06-26T19:48:03.907Z,20.79
2023-06-26T19:50:30.966Z,20.80
2023-06-26T19:52:57.913Z,20.81
2023-06-26T19:55:24.913Z,20.81
2023-06-26T19:57:52.378Z,20.81
2023-06-26T20:00:19.739Z,20.80
2023-06-26T20:02:46.740Z,20.79
2023-06-26T20:05:16.941Z,20.76
2023-06-26T20:07:44.529Z,20.73
2023-06-26T20:10:11.583Z,20.71
2023-06-26T20:12:38.514Z,20.69
2023-06-26T20:15:05.724Z,20.67
2023-06-26T20:17:32.666Z,20.65
2023-06-26T20:20:00.739Z,20.63
2023-06-26T20:22:27.936Z,20.60
2023-06-26T20:24:55.124Z,20.58
2023-06-26T20:27:22.029Z,20.56
2023-06-26T20:29:48.974Z,20.52
2023-06-26T20:32:15.989Z,20.48
2023-06-26T20:34:43.387Z,20.44
2023-06-26T20:37:10.328Z,20.36
2023-06-26T20:39:37.706Z,20.28
2023-06-26T20:42:05.007Z,20.23
2023-06-26T20:44:32.135Z,20.14
2023-06-26T20:47:10.143Z,20.07
2023-06-26T20:49:37.913Z,19.98
2023-06-26T20:52:08.902Z,19.91
2023-06-26T20:54:39.142Z,19.83
2023-06-26T20:57:09.684Z,19.79
2023-06-26T20:59:39.979Z,19.77
2023-06-26T21:02:07.330Z,19.75
2023-06-26T21:04:37.869Z,19.75
2023-06-26T21:07:06.888Z,19.74
2023-06-26T21:09:33.972Z,19.75
2023-06-26T21:12:02.814Z,19.74
2023-06-26T21:14:29.710Z,19.75
2023-06-26T21:16:56.609Z,19.76
2023-06-26T21:19:23.719Z,19.73
2023-06-26T21:21:50.543Z,19.66
2023-06-26T21:24:17.507Z,19.59
2023-06-26T21:26:44.292Z,19.52
2023-06-26T21:29:11.363Z,19.49
2023-06-26T21:31:38.629Z,19.47
2023-06-26T21:34:05.551Z,19.46
2023-06-26T21:36:32.448Z,19.48
2023-06-26T21:38:59.335Z,19.48
2023-06-26T21:41:26.185Z,19.51
2023-06-26T21:43:53.157Z,19.54
2023-06-26T21:46:20.112Z,19.55
2023-06-26T21:48:47.190Z,19.55
2023-06-26T21:51:14.189Z,19.54
2023-06-26T21:53:41.058Z,19.52
2023-06-26T21:56:07.946Z,19.47
2023-06-26T21:58:35.051Z,19.42
2023-06-26T22:01:01.890Z,19.37
2023-06-26T22:03:28.773Z,19.31
2023-06-26T22:05:55.739Z,19.28
2023-06-26T22:08:22.673Z,19.24
2023-06-26T22:10:49.512Z,19.22
2023-06-26T22:13:16.609Z,19.21
2023-06-26T22:15:43.683Z,19.19
2023-06-26T22:18:10.863Z,19.19
2023-06-26T22:20:37.866Z,19.17
2023-06-26T22:23:04.856Z,19.16
2023-06-26T22:25:32.077Z,19.14
2023-06-26T22:27:58.891Z,19.15
2023-06-26T22:30:26.057Z,19.13
2023-06-26T22:32:53.097Z,19.12
2023-06-26T22:35:20.193Z,19.10
2023-06-26T22:37:47.093Z,19.07
2023-06-26T22:40:16.008Z,19.05
2023-06-26T22:42:42.928Z,19.02
2023-06-26T22:45:11.359Z,19.00
2023-06-26T22:47:39.073Z,18.98
2023-06-26T22:50:07.465Z,18.95
2023-06-26T22:52:35.303Z,18.93
2023-06-26T22:55:02.986Z,18.91
2023-06-26T22:57:30.846Z,18.89
2023-06-26T22:59:57.928Z,18.86
2023-06-26T23:02:24.912Z,18.84
2023-06-26T23:04:51.988Z,18.84
2023-06-26T23:07:21.552Z,18.84
2023-06-26T23:09:49.919Z,18.84
2023-06-26T23:12:17.346Z,18.84
2023-06-26T23:14:44.675Z,18.84
2023-06-26T23:17:12.802Z,18.83
2023-06-26T23:19:41.130Z,18.83
2023-06-26T23:22:10.723Z,18.81
2023-06-26T23:24:38.868Z,18.78
2023-06-26T23:27:09.731Z,18.74
2023-06-26T23:29:37.702Z,18.70
2023-06-26T23:32:06.981Z,18.66
2023-06-26T23:34:40.606Z,18.62
2023-06-26T23:37:08.990Z,18.57
2023-06-26T23:39:39.520Z,18.52
2023-06-26T23:42:07.240Z,18.48
2023-06-26T23:44:36.764Z,18.45
2023-06-26T23:47:07.496Z,18.41
2023-06-26T23:49:35.488Z,18.38
2023-06-26T23:52:02.922Z,18.34
2023-06-26T23:54:32.172Z,18.31
2023-06-26T23:56:59.671Z,18.28
2023-06-26T23:59:26.584Z,18.26
